Terminal Aerodrome Forecast
Issued by NWS Jackson, MS

Home | Current Version | Previous Version | Text Only | Print | Product List | Glossary On
Versions: 1 2 3 4 5 6 7 8 9 10 11 12 13 14 15 16 17 18 19 20
662
FTUS44 KJAN 241124
TAFGLH
TAF
KGLH 241124Z 2412/2512 16003KT 5SM BR SKC
     FM241400 16010KT P6SM SCT250
     FM250600 18012KT P6SM SCT015 BKN250
     FM250900 19010KT P6SM OVC015=

USA.gov is the U.S. government's official web portal to all federal, state and local government web resources and services.